sensor_id;sensor_type;location;lat;lon;timestamp;pressure;altitude;pressure_sealevel;temperature;humidity
43707;BME280;61348;53.392;-6.248;2023-02-01T00:01:14;101649.13;;;5.29;86.85
43707;BME280;61348;53.392;-6.248;2023-02-01T00:03:40;101638.16;;;5.29;86.74
43707;BME280;61348;53.392;-6.248;2023-02-01T00:06:07;101641.69;;;5.30;86.89
43707;BME280;61348;53.392;-6.248;2023-02-01T00:08:34;101632.34;;;5.31;86.91
43707;BME280;61348;53.392;-6.248;2023-02-01T00:11:04;101627.97;;;5.30;86.83
43707;BME280;61348;53.392;-6.248;2023-02-01T00:13:33;101635.41;;;5.29;86.92
43707;BME280;61348;53.392;-6.248;2023-02-01T00:16:18;101631.81;;;5.29;87.08
43707;BME280;61348;53.392;-6.248;2023-02-01T00:18:47;101634.28;;;5.30;87.02
43707;BME280;61348;53.392;-6.248;2023-02-01T00:21:16;101637.84;;;5.31;86.90
43707;BME280;61348;53.392;-6.248;2023-02-01T00:23:43;101638.16;;;5.29;86.78
43707;BME280;61348;53.392;-6.248;2023-02-01T00:26:27;101639.25;;;5.28;86.95
43707;BME280;61348;53.392;-6.248;2023-02-01T00:28:56;101633.22;;;5.26;87.04
43707;BME280;61348;53.392;-6.248;2023-02-01T00:31:23;101643.91;;;5.28;87.25
43707;BME280;61348;53.392;-6.248;2023-02-01T00:33:52;101637.88;;;5.26;87.42
43707;BME280;61348;53.392;-6.248;2023-02-01T00:36:19;101629.94;;;5.24;87.22
43707;BME280;61348;53.392;-6.248;2023-02-01T00:38:45;101635.41;;;5.24;87.25
43707;BME280;61348;53.392;-6.248;2023-02-01T00:41:17;101624.44;;;5.24;87.11
43707;BME280;61348;53.392;-6.248;2023-02-01T00:43:45;101632.66;;;5.24;87.11
43707;BME280;61348;53.392;-6.248;2023-02-01T00:46:13;101625.25;;;5.25;87.31
43707;BME280;61348;53.392;-6.248;2023-02-01T00:48:40;101638.72;;;5.26;87.39
43707;BME280;61348;53.392;-6.248;2023-02-01T00:51:11;101632.94;;;5.28;87.67
43707;BME280;61348;53.392;-6.248;2023-02-01T00:53:38;101650.75;;;5.30;87.42
43707;BME280;61348;53.392;-6.248;2023-02-01T00:56:05;101633.19;;;5.31;87.64
43707;BME280;61348;53.392;-6.248;2023-02-01T00:58:33;101644.69;;;5.33;87.44
43707;BME280;61348;53.392;-6.248;2023-02-01T01:03:34;101643.84;;;5.33;87.38
43707;BME280;61348;53.392;-6.248;2023-02-01T01:06:04;101642.75;;;5.34;87.20
43707;BME280;61348;53.392;-6.248;2023-02-01T01:08:32;101635.34;;;5.34;87.30
43707;BME280;61348;53.392;-6.248;2023-02-01T01:11:04;101632.88;;;5.33;87.16
43707;BME280;61348;53.392;-6.248;2023-02-01T01:13:31;101637.53;;;5.32;87.40
43707;BME280;61348;53.392;-6.248;2023-02-01T01:16:00;101640.59;;;5.31;87.19
43707;BME280;61348;53.392;-6.248;2023-02-01T01:18:33;101649.66;;;5.31;87.59
43707;BME280;61348;53.392;-6.248;2023-02-01T01:21:00;101637.84;;;5.31;87.41
43707;BME280;61348;53.392;-6.248;2023-02-01T01:23:27;101643.63;;;5.29;87.44
43707;BME280;61348;53.392;-6.248;2023-02-01T01:25:54;101642.81;;;5.29;87.69
43707;BME280;61348;53.392;-6.248;2023-02-01T01:28:21;101634.06;;;5.27;87.73
43707;BME280;61348;53.392;-6.248;2023-02-01T01:30:48;101631.56;;;5.25;87.63
43707;BME280;61348;53.392;-6.248;2023-02-01T01:33:15;101632.41;;;5.26;87.62
43707;BME280;61348;53.392;-6.248;2023-02-01T01:35:42;101629.94;;;5.24;88.03
43707;BME280;61348;53.392;-6.248;2023-02-01T01:38:10;101632.97;;;5.23;88.00
43707;BME280;61348;53.392;-6.248;2023-02-01T01:40:38;101621.16;;;5.22;87.69
43707;BME280;61348;53.392;-6.248;2023-02-01T01:43:13;101625.56;;;5.23;87.97
43707;BME280;61348;53.392;-6.248;2023-02-01T01:45:40;101620.03;;;5.28;88.13
43707;BME280;61348;53.392;-6.248;2023-02-01T01:48:26;101624.13;;;5.31;88.06
43707;BME280;61348;53.392;-6.248;2023-02-01T01:51:08;101616.69;;;5.31;87.90
43707;BME280;61348;53.392;-6.248;2023-02-01T01:53:43;101615.06;;;5.30;88.06
43707;BME280;61348;53.392;-6.248;2023-02-01T01:56:11;101616.19;;;5.29;88.06
43707;BME280;61348;53.392;-6.248;2023-02-01T01:58:39;101609.88;;;5.29;88.11
43707;BME280;61348;53.392;-6.248;2023-02-01T02:01:05;101605.78;;;5.26;88.23
43707;BME280;61348;53.392;-6.248;2023-02-01T02:03:37;101605.78;;;5.26;88.27
43707;BME280;61348;53.392;-6.248;2023-02-01T02:06:19;101593.13;;;5.25;88.55
43707;BME280;61348;53.392;-6.248;2023-02-01T02:08:50;101601.38;;;5.25;88.59
43707;BME280;61348;53.392;-6.248;2023-02-01T02:11:18;101596.97;;;5.24;88.86
43707;BME280;61348;53.392;-6.248;2023-02-01T02:13:48;101589.88;;;5.23;88.92
43707;BME280;61348;53.392;-6.248;2023-02-01T02:22:22;101593.50;;;5.19;89.27
43707;BME280;61348;53.392;-6.248;2023-02-01T02:33:41;101585.28;;;5.14;89.53
43707;BME280;61348;53.392;-6.248;2023-02-01T02:36:36;101591.59;;;5.14;89.85
43707;BME280;61348;53.392;-6.248;2023-02-01T02:45:08;101596.03;;;5.10;89.91
43707;BME280;61348;53.392;-6.248;2023-02-01T02:54:01;101596.56;;;5.12;90.33
43707;BME280;61348;53.392;-6.248;2023-02-01T02:56:49;101598.22;;;5.13;90.35
43707;BME280;61348;53.392;-6.248;2023-02-01T02:59:35;101586.09;;;5.14;90.19
43707;BME280;61348;53.392;-6.248;2023-02-01T03:02:22;101584.69;;;5.17;90.27
43707;BME280;61348;53.392;-6.248;2023-02-01T03:05:07;101576.78;;;5.15;90.11
43707;BME280;61348;53.392;-6.248;2023-02-01T03:13:33;101568.22;;;5.17;90.25
43707;BME280;61348;53.392;-6.248;2023-02-01T03:16:24;101583.91;;;5.16;90.49
43707;BME280;61348;53.392;-6.248;2023-02-01T03:19:24;101580.34;;;5.16;90.70
43707;BME280;61348;53.392;-6.248;2023-02-01T03:21:56;101579.78;;;5.19;90.67
43707;BME280;61348;53.392;-6.248;2023-02-01T03:27:09;101573.97;;;5.20;90.36
43707;BME280;61348;53.392;-6.248;2023-02-01T03:32:13;101568.47;;;5.20;90.84
43707;BME280;61348;53.392;-6.248;2023-02-01T03:34:40;101567.41;;;5.21;90.53
43707;BME280;61348;53.392;-6.248;2023-02-01T03:37:10;101571.75;;;5.22;90.77
43707;BME280;61348;53.392;-6.248;2023-02-01T03:40:05;101585.22;;;5.24;90.71
43707;BME280;61348;53.392;-6.248;2023-02-01T03:42:35;101567.91;;;5.23;90.81
43707;BME280;61348;53.392;-6.248;2023-02-01T03:45:10;101571.75;;;5.22;90.60
43707;BME280;61348;53.392;-6.248;2023-02-01T03:47:42;101573.41;;;5.23;90.76
43707;BME280;61348;53.392;-6.248;2023-02-01T03:50:14;101565.16;;;5.23;90.86
43707;BME280;61348;53.392;-6.248;2023-02-01T03:52:43;101558.53;;;5.24;90.95
43707;BME280;61348;53.392;-6.248;2023-02-01T03:55:11;101564.34;;;5.23;90.96
43707;BME280;61348;53.392;-6.248;2023-02-01T03:57:48;101549.78;;;5.22;90.93
43707;BME280;61348;53.392;-6.248;2023-02-01T04:00:21;101551.44;;;5.23;91.04
43707;BME280;61348;53.392;-6.248;2023-02-01T04:02:49;101544.31;;;5.22;91.02
43707;BME280;61348;53.392;-6.248;2023-02-01T04:05:17;101536.06;;;5.22;91.23
43707;BME280;61348;53.392;-6.248;2023-02-01T04:07:44;101534.16;;;5.23;90.90
43707;BME280;61348;53.392;-6.248;2023-02-01T04:10:11;101528.34;;;5.24;91.25
43707;BME280;61348;53.392;-6.248;2023-02-01T04:12:38;101533.25;;;5.27;91.36
43707;BME280;61348;53.392;-6.248;2023-02-01T04:15:05;101535.44;;;5.30;91.11
43707;BME280;61348;53.392;-6.248;2023-02-01T04:17:32;101522.22;;;5.32;91.18
43707;BME280;61348;53.392;-6.248;2023-02-01T04:19:59;101516.16;;;5.35;91.23
43707;BME280;61348;53.392;-6.248;2023-02-01T04:22:26;101520.56;;;5.36;91.16
43707;BME280;61348;53.392;-6.248;2023-02-01T04:24:53;101494.13;;;5.40;91.49
43707;BME280;61348;53.392;-6.248;2023-02-01T04:27:19;101510.03;;;5.43;91.24
43707;BME280;61348;53.392;-6.248;2023-02-01T04:29:46;101513.28;;;5.45;91.26
43707;BME280;61348;53.392;-6.248;2023-02-01T04:32:13;101502.84;;;5.47;91.22
43707;BME280;61348;53.392;-6.248;2023-02-01T04:34:39;101509.16;;;5.48;91.00
43707;BME280;61348;53.392;-6.248;2023-02-01T04:37:09;101512.72;;;5.48;91.11
43707;BME280;61348;53.392;-6.248;2023-02-01T04:39:35;101508.03;;;5.49;91.13
43707;BME280;61348;53.392;-6.248;2023-02-01T04:42:02;101508.34;;;5.47;91.54
43707;BME280;61348;53.392;-6.248;2023-02-01T04:44:29;101517.09;;;5.49;90.96
43707;BME280;61348;53.392;-6.248;2023-02-01T04:46:56;101518.19;;;5.48;91.06
43707;BME280;61348;53.392;-6.248;2023-02-01T04:49:23;101515.47;;;5.48;90.97
43707;BME280;61348;53.392;-6.248;2023-02-01T04:51:52;101516.28;;;5.49;90.91
43707;BME280;61348;53.392;-6.248;2023-02-01T04:54:19;101513.25;;;5.50;90.98
43707;BME280;61348;53.392;-6.248;2023-02-01T04:56:46;101517.09;;;5.49;90.80
43707;BME280;61348;53.392;-6.248;2023-02-01T04:59:13;101513.25;;;5.50;91.07
43707;BME280;61348;53.392;-6.248;2023-02-01T05:01:40;101507.75;;;5.50;91.05
43707;BME280;61348;53.392;-6.248;2023-02-01T05:04:06;101516.53;;;5.52;90.96
43707;BME280;61348;53.392;-6.248;2023-02-01T05:06:34;101518.13;;;5.53;90.87
43707;BME280;61348;53.392;-6.248;2023-02-01T05:09:01;101516.22;;;5.54;90.87
43707;BME280;61348;53.392;-6.248;2023-02-01T05:11:27;101514.28;;;5.54;90.82
43707;BME280;61348;53.392;-6.248;2023-02-01T05:14:13;101515.94;;;5.56;90.76
43707;BME280;61348;53.392;-6.248;2023-02-01T05:16:39;101522.22;;;5.56;90.35
43707;BME280;61348;53.392;-6.248;2023-02-01T05:19:06;101524.47;;;5.54;90.67
43707;BME280;61348;53.392;-6.248;2023-02-01T05:21:33;101519.78;;;5.54;90.64
43707;BME280;61348;53.392;-6.248;2023-02-01T05:23:59;101528.84;;;5.55;90.64
43707;BME280;61348;53.392;-6.248;2023-02-01T05:26:36;101525.28;;;5.54;90.60
43707;BME280;61348;53.392;-6.248;2023-02-01T05:29:05;101534.63;;;5.53;90.60
43707;BME280;61348;53.392;-6.248;2023-02-01T05:31:32;101547.25;;;5.54;90.39
43707;BME280;61348;53.392;-6.248;2023-02-01T05:33:59;101540.34;;;5.57;90.58
43707;BME280;61348;53.392;-6.248;2023-02-01T05:36:26;101541.19;;;5.58;90.56
43707;BME280;61348;53.392;-6.248;2023-02-01T05:38:52;101542.00;;;5.58;90.46
43707;BME280;61348;53.392;-6.248;2023-02-01T05:41:19;101548.31;;;5.59;90.34
43707;BME280;61348;53.392;-6.248;2023-02-01T05:43:46;101548.31;;;5.59;90.27
43707;BME280;61348;53.392;-6.248;2023-02-01T05:46:13;101543.63;;;5.59;90.48
43707;BME280;61348;53.392;-6.248;2023-02-01T05:48:42;101540.88;;;5.59;90.42
43707;BME280;61348;53.392;-6.248;2023-02-01T05:51:10;101542.28;;;5.57;90.57
43707;BME280;61348;53.392;-6.248;2023-02-01T05:53:36;101532.41;;;5.56;90.52
43707;BME280;61348;53.392;-6.248;2023-02-01T05:56:04;101527.72;;;5.56;90.29
43707;BME280;61348;53.392;-6.248;2023-02-01T05:58:31;101527.72;;;5.56;90.49
43707;BME280;61348;53.392;-6.248;2023-02-01T06:01:02;101530.47;;;5.56;90.38
43707;BME280;61348;53.392;-6.248;2023-02-01T06:03:29;101531.59;;;5.55;90.57
43707;BME280;61348;53.392;-6.248;2023-02-01T06:05:56;101532.41;;;5.56;90.32
43707;BME280;61348;53.392;-6.248;2023-02-01T06:08:22;101543.41;;;5.56;90.42
43707;BME280;61348;53.392;-6.248;2023-02-01T06:11:00;101545.34;;;5.55;90.48
43707;BME280;61348;53.392;-6.248;2023-02-01T06:13:28;101539.53;;;5.57;90.39
43707;BME280;61348;53.392;-6.248;2023-02-01T06:15:54;101531.28;;;5.57;90.57
43707;BME280;61348;53.392;-6.248;2023-02-01T06:18:23;101531.28;;;5.57;90.29
43707;BME280;61348;53.392;-6.248;2023-02-01T06:20:58;101539.25;;;5.58;90.82
43707;BME280;61348;53.392;-6.248;2023-02-01T06:23:28;101533.47;;;5.60;90.45
43707;BME280;61348;53.392;-6.248;2023-02-01T06:26:04;101532.34;;;5.61;90.73
43707;BME280;61348;53.392;-6.248;2023-02-01T06:28:32;101535.38;;;5.59;90.74
43707;BME280;61348;53.392;-6.248;2023-02-01T06:31:05;101534.59;;;5.59;90.81
43707;BME280;61348;53.392;-6.248;2023-02-01T06:33:34;101532.63;;;5.59;90.76
43707;BME280;61348;53.392;-6.248;2023-02-01T06:36:03;101534.28;;;5.60;90.79
43707;BME280;61348;53.392;-6.248;2023-02-01T06:38:31;101524.13;;;5.61;90.97
43707;BME280;61348;53.392;-6.248;2023-02-01T06:40:57;101536.72;;;5.62;90.85
43707;BME280;61348;53.392;-6.248;2023-02-01T06:43:26;101529.03;;;5.64;90.90
43707;BME280;61348;53.392;-6.248;2023-02-01T06:45:53;101537.28;;;5.64;90.88
43707;BME280;61348;53.392;-6.248;2023-02-01T06:48:25;101532.56;;;5.64;91.27
43707;BME280;61348;53.392;-6.248;2023-02-01T06:50:52;101520.47;;;5.65;90.89
43707;BME280;61348;53.392;-6.248;2023-02-01T06:53:18;101526.81;;;5.66;91.09
43707;BME280;61348;53.392;-6.248;2023-02-01T06:56:00;101525.16;;;5.65;91.35
43707;BME280;61348;53.392;-6.248;2023-02-01T06:58:32;101524.06;;;5.66;91.08
43707;BME280;61348;53.392;-6.248;2023-02-01T07:01:09;101523.22;;;5.65;91.04
43707;BME280;61348;53.392;-6.248;2023-02-01T07:03:37;101530.38;;;5.66;91.44
43707;BME280;61348;53.392;-6.248;2023-02-01T07:06:04;101525.16;;;5.65;91.29
43707;BME280;61348;53.392;-6.248;2023-02-01T07:08:33;101537.78;;;5.66;91.30
43707;BME280;61348;53.392;-6.248;2023-02-01T07:11:04;101538.63;;;5.66;91.69
43707;BME280;61348;53.392;-6.248;2023-02-01T07:13:31;101533.13;;;5.66;91.50
43707;BME280;61348;53.392;-6.248;2023-02-01T07:16:00;101538.03;;;5.69;91.70
43707;BME280;61348;53.392;-6.248;2023-02-01T07:18:29;101532.22;;;5.71;91.65
43707;BME280;61348;53.392;-6.248;2023-02-01T07:20:56;101522.34;;;5.70;91.54
43707;BME280;61348;53.392;-6.248;2023-02-01T07:23:23;101542.13;;;5.72;91.76
43707;BME280;61348;53.392;-6.248;2023-02-01T07:25:55;101543.47;;;5.74;91.85
43707;BME280;61348;53.392;-6.248;2023-02-01T07:28:23;101535.72;;;5.76;91.87
43707;BME280;61348;53.392;-6.248;2023-02-01T07:30:50;101546.41;;;5.78;91.86
43707;BME280;61348;53.392;-6.248;2023-02-01T07:33:21;101540.34;;;5.81;91.85
43707;BME280;61348;53.392;-6.248;2023-02-01T07:35:49;101534.84;;;5.81;91.81
43707;BME280;61348;53.392;-6.248;2023-02-01T07:38:17;101553.81;;;5.82;91.75
43707;BME280;61348;53.392;-6.248;2023-02-01T07:40:44;101554.59;;;5.83;91.77
43707;BME280;61348;53.392;-6.248;2023-02-01T07:43:10;101565.59;;;5.83;91.85
43707;BME280;61348;53.392;-6.248;2023-02-01T07:45:37;101556.25;;;5.84;91.80
43707;BME280;61348;53.392;-6.248;2023-02-01T07:48:04;101563.13;;;5.86;91.91
43707;BME280;61348;53.392;-6.248;2023-02-01T07:50:31;101557.31;;;5.88;91.95
43707;BME280;61348;53.392;-6.248;2023-02-01T07:52:59;101564.44;;;5.89;91.83
43707;BME280;61348;53.392;-6.248;2023-02-01T07:55:27;101559.78;;;5.89;92.02
43707;BME280;61348;53.392;-6.248;2023-02-01T07:57:57;101566.09;;;5.90;91.97
43707;BME280;61348;53.392;-6.248;2023-02-01T08:00:25;101572.41;;;5.90;92.04
43707;BME280;61348;53.392;-6.248;2023-02-01T08:03:11;101561.44;;;5.90;92.30
43707;BME280;61348;53.392;-6.248;2023-02-01T08:05:37;101574.34;;;5.90;92.19
43707;BME280;61348;53.392;-6.248;2023-02-01T08:08:04;101571.81;;;5.93;92.32
43707;BME280;61348;53.392;-6.248;2023-02-01T08:10:31;101585.28;;;5.95;92.27
43707;BME280;61348;53.392;-6.248;2023-02-01T08:12:59;101578.38;;;5.97;92.50
43707;BME280;61348;53.392;-6.248;2023-02-01T08:15:27;101591.53;;;6.00;92.39
43707;BME280;61348;53.392;-6.248;2023-02-01T08:17:54;101595.09;;;6.01;92.38
43707;BME280;61348;53.392;-6.248;2023-02-01T08:20:22;101600.59;;;6.01;92.37
43707;BME280;61348;53.392;-6.248;2023-02-01T08:22:56;101592.03;;;6.02;92.48
43707;BME280;61348;53.392;-6.248;2023-02-01T08:25:23;101592.03;;;6.02;92.59
43707;BME280;61348;53.392;-6.248;2023-02-01T08:27:50;101593.69;;;6.03;92.73
43707;BME280;61348;53.392;-6.248;2023-02-01T08:30:17;101593.69;;;6.03;92.81
43707;BME280;61348;53.392;-6.248;2023-02-01T08:32:44;101603.28;;;6.06;92.76
43707;BME280;61348;53.392;-6.248;2023-02-01T08:35:11;101612.56;;;6.10;92.80
43707;BME280;61348;53.392;-6.248;2023-02-01T08:37:38;101608.72;;;6.11;93.09
43707;BME280;61348;53.392;-6.248;2023-02-01T08:40:05;101609.22;;;6.13;92.68
43707;BME280;61348;53.392;-6.248;2023-02-01T08:42:32;101610.25;;;6.17;92.73
43707;BME280;61348;53.392;-6.248;2023-02-01T08:45:22;101607.16;;;6.24;92.79
43707;BME280;61348;53.392;-6.248;2023-02-01T08:47:52;101611.78;;;6.28;92.87
43707;BME280;61348;53.392;-6.248;2023-02-01T08:50:20;101612.53;;;6.34;92.82
43707;BME280;61348;53.392;-6.248;2023-02-01T08:52:47;101620.41;;;6.40;93.04
43707;BME280;61348;53.392;-6.248;2023-02-01T08:55:15;101620.03;;;6.47;92.79
43707;BME280;61348;53.392;-6.248;2023-02-01T08:57:42;101630.69;;;6.53;92.95
43707;BME280;61348;53.392;-6.248;2023-02-01T09:00:12;101629.47;;;6.59;92.82
43707;BME280;61348;53.392;-6.248;2023-02-01T09:02:40;101627.19;;;6.66;92.77
43707;BME280;61348;53.392;-6.248;2023-02-01T09:05:07;101618.56;;;6.73;92.67
43707;BME280;61348;53.392;-6.248;2023-02-01T09:07:34;101634.19;;;6.78;92.55
43707;BME280;61348;53.392;-6.248;2023-02-01T09:10:01;101623.91;;;6.83;92.53
43707;BME280;61348;53.392;-6.248;2023-02-01T09:12:30;101633.72;;;6.89;92.34
43707;BME280;61348;53.392;-6.248;2023-02-01T09:14:57;101641.06;;;6.94;92.27
43707;BME280;61348;53.392;-6.248;2023-02-01T09:17:27;101654.78;;;6.99;92.20
43707;BME280;61348;53.392;-6.248;2023-02-01T09:19:59;101645.38;;;7.00;92.23
43707;BME280;61348;53.392;-6.248;2023-02-01T09:22:25;101641.03;;;6.99;92.09
43707;BME280;61348;53.392;-6.248;2023-02-01T09:24:53;101649.28;;;6.99;92.21
43707;BME280;61348;53.392;-6.248;2023-02-01T09:27:21;101649.28;;;6.99;92.18
43707;BME280;61348;53.392;-6.248;2023-02-01T09:29:48;101661.31;;;7.03;92.11
43707;BME280;61348;53.392;-6.248;2023-02-01T09:32:23;101652.97;;;7.08;91.96
43707;BME280;61348;53.392;-6.248;2023-02-01T09:34:51;101647.09;;;7.14;91.91
43707;BME280;61348;53.392;-6.248;2023-02-01T09:37:19;101658.84;;;7.20;91.92
43707;BME280;61348;53.392;-6.248;2023-02-01T09:39:46;101655.41;;;7.28;91.73
43707;BME280;61348;53.392;-6.248;2023-02-01T09:45:24;101651.06;;;7.41;91.46
43707;BME280;61348;53.392;-6.248;2023-02-01T09:47:57;101653.50;;;7.42;91.45
43707;BME280;61348;53.392;-6.248;2023-02-01T09:50:49;101651.25;;;7.44;91.32
43707;BME280;61348;53.392;-6.248;2023-02-01T09:53:29;101652.91;;;7.45;91.29
43707;BME280;61348;53.392;-6.248;2023-02-01T09:56:04;101658.91;;;7.47;91.44
43707;BME280;61348;53.392;-6.248;2023-02-01T10:01:24;101654.44;;;7.51;91.40
43707;BME280;61348;53.392;-6.248;2023-02-01T10:03:58;101640.66;;;7.51;91.34
43707;BME280;61348;53.392;-6.248;2023-02-01T10:09:54;101651.88;;;7.55;91.07
43707;BME280;61348;53.392;-6.248;2023-02-01T10:15:15;101644.34;;;7.60;91.03
43707;BME280;61348;53.392;-6.248;2023-02-01T10:24:42;101665.31;;;7.75;90.81
43707;BME280;61348;53.392;-6.248;2023-02-01T10:27:24;101659.47;;;7.76;90.71
43707;BME280;61348;53.392;-6.248;2023-02-01T10:29:59;101652.25;;;7.80;90.47
43707;BME280;61348;53.392;-6.248;2023-02-01T10:32:34;101664.63;;;7.83;90.56
43707;BME280;61348;53.392;-6.248;2023-02-01T10:35:08;101659.00;;;7.88;90.76
43707;BME280;61348;53.392;-6.248;2023-02-01T10:37:41;101655.81;;;7.94;90.85
43707;BME280;61348;53.392;-6.248;2023-02-01T10:40:18;101663.91;;;8.05;90.51
43707;BME280;61348;53.392;-6.248;2023-02-01T10:42:49;101671.56;;;8.08;90.36
43707;BME280;61348;53.392;-6.248;2023-02-01T10:45:20;101667.69;;;8.09;90.29
43707;BME280;61348;53.392;-6.248;2023-02-01T10:47:49;101667.06;;;8.12;90.25
43707;BME280;61348;53.392;-6.248;2023-02-01T10:53:14;101670.13;;;8.24;90.39
43707;BME280;61348;53.392;-6.248;2023-02-01T10:55:51;101669.16;;;8.33;90.18
43707;BME280;61348;53.392;-6.248;2023-02-01T10:58:32;101675.88;;;8.41;89.92
43707;BME280;61348;53.392;-6.248;2023-02-01T11:01:08;101683.56;;;8.44;89.95
43707;BME280;61348;53.392;-6.248;2023-02-01T11:03:42;101684.06;;;8.46;89.80
43707;BME280;61348;53.392;-6.248;2023-02-01T11:06:26;101693.06;;;8.51;89.80
43707;BME280;61348;53.392;-6.248;2023-02-01T11:09:00;101688.53;;;8.55;89.94
43707;BME280;61348;53.392;-6.248;2023-02-01T11:11:27;101702.53;;;8.59;89.74
43707;BME280;61348;53.392;-6.248;2023-02-01T11:14:00;101703.66;;;8.58;89.62
43707;BME280;61348;53.392;-6.248;2023-02-01T11:16:31;101712.25;;;8.56;89.52
43707;BME280;61348;53.392;-6.248;2023-02-01T11:18:59;101709.81;;;8.55;89.61
43707;BME280;61348;53.392;-6.248;2023-02-01T11:21:27;101697.75;;;8.51;89.51
43707;BME280;61348;53.392;-6.248;2023-02-01T11:23:54;101705.03;;;8.47;89.66
43707;BME280;61348;53.392;-6.248;2023-02-01T11:26:25;101697.34;;;8.44;89.77
43707;BME280;61348;53.392;-6.248;2023-02-01T11:28:58;101694.88;;;8.42;89.81
43707;BME280;61348;53.392;-6.248;2023-02-01T11:31:27;101691.50;;;8.45;89.92
43707;BME280;61348;53.392;-6.248;2023-02-01T11:34:00;101672.91;;;8.51;89.75
43707;BME280;61348;53.392;-6.248;2023-02-01T11:36:32;101665.66;;;8.55;89.47
43707;BME280;61348;53.392;-6.248;2023-02-01T11:49:44;101672.38;;;8.76;89.24
43707;BME280;61348;53.392;-6.248;2023-02-01T11:52:14;101674.19;;;8.81;89.16
43707;BME280;61348;53.392;-6.248;2023-02-01T12:11:27;101641.25;;;9.06;88.50
43707;BME280;61348;53.392;-6.248;2023-02-01T12:14:14;101640.97;;;9.08;88.44
43707;BME280;61348;53.392;-6.248;2023-02-01T12:28:00;101646.53;;;8.94;88.01
43707;BME280;61348;53.392;-6.248;2023-02-01T12:31:06;101650.41;;;8.93;87.83
43707;BME280;61348;53.392;-6.248;2023-02-01T12:42:13;101642.16;;;9.15;87.39
43707;BME280;61348;53.392;-6.248;2023-02-01T12:48:32;101635.34;;;9.22;86.93
43707;BME280;61348;53.392;-6.248;2023-02-01T12:51:06;101631.13;;;9.24;86.68
43707;BME280;61348;53.392;-6.248;2023-02-01T12:56:16;101629.59;;;9.32;86.52
43707;BME280;61348;53.392;-6.248;2023-02-01T12:58:49;101632.53;;;9.35;86.28
43707;BME280;61348;53.392;-6.248;2023-02-01T13:03:54;101623.78;;;9.42;85.89
43707;BME280;61348;53.392;-6.248;2023-02-01T13:06:43;101623.16;;;9.45;85.92
43707;BME280;61348;53.392;-6.248;2023-02-01T13:09:42;101623.66;;;9.47;85.63
43707;BME280;61348;53.392;-6.248;2023-02-01T13:12:15;101628.03;;;9.48;85.62
43707;BME280;61348;53.392;-6.248;2023-02-01T13:15:05;101631.13;;;9.46;85.36
43707;BME280;61348;53.392;-6.248;2023-02-01T13:17:32;101637.97;;;9.49;85.33
43707;BME280;61348;53.392;-6.248;2023-02-01T13:20:21;101616.34;;;9.51;85.04
43707;BME280;61348;53.392;-6.248;2023-02-01T13:22:59;101633.75;;;9.51;85.03
43707;BME280;61348;53.392;-6.248;2023-02-01T13:25:38;101632.94;;;9.51;84.67
43707;BME280;61348;53.392;-6.248;2023-02-01T13:42:11;101622.75;;;9.60;83.72
43707;BME280;61348;53.392;-6.248;2023-02-01T13:44:57;101628.16;;;9.65;83.43
43707;BME280;61348;53.392;-6.248;2023-02-01T13:47:31;101616.47;;;9.68;83.27
43707;BME280;61348;53.392;-6.248;2023-02-01T13:50:16;101611.91;;;9.72;82.92
43707;BME280;61348;53.392;-6.248;2023-02-01T13:52:53;101624.94;;;9.71;82.66
43707;BME280;61348;53.392;-6.248;2023-02-01T13:57:52;101631.59;;;9.70;82.17
43707;BME280;61348;53.392;-6.248;2023-02-01T14:00:31;101623.59;;;9.69;81.70
43707;BME280;61348;53.392;-6.248;2023-02-01T14:10:59;101614.00;;;9.66;81.19
43707;BME280;61348;53.392;-6.248;2023-02-01T14:13:40;101609.91;;;9.64;81.00
43707;BME280;61348;53.392;-6.248;2023-02-01T14:16:15;101614.31;;;9.65;81.05
43707;BME280;61348;53.392;-6.248;2023-02-01T14:24:01;101604.56;;;9.67;81.01
43707;BME280;61348;53.392;-6.248;2023-02-01T14:32:04;101601.19;;;9.70;81.10
43707;BME280;61348;53.392;-6.248;2023-02-01T14:42:19;101604.28;;;9.77;80.79
43707;BME280;61348;53.392;-6.248;2023-02-01T14:44:48;101606.13;;;9.82;80.72
43707;BME280;61348;53.392;-6.248;2023-02-01T14:47:28;101604.47;;;9.81;80.71
43707;BME280;61348;53.392;-6.248;2023-02-01T14:52:40;101602.00;;;9.79;80.56
43707;BME280;61348;53.392;-6.248;2023-02-01T14:55:25;101600.06;;;9.80;80.36
43707;BME280;61348;53.392;-6.248;2023-02-01T14:57:55;101613.91;;;9.80;80.43
43707;BME280;61348;53.392;-6.248;2023-02-01T15:00:27;101605.13;;;9.78;80.20
43707;BME280;61348;53.392;-6.248;2023-02-01T15:03:15;101613.41;;;9.78;80.28
43707;BME280;61348;53.392;-6.248;2023-02-01T15:05:54;101619.28;;;9.76;80.20
43707;BME280;61348;53.392;-6.248;2023-02-01T15:08:26;101620.72;;;9.74;80.10
43707;BME280;61348;53.392;-6.248;2023-02-01T15:10:54;101624.13;;;9.71;79.92
43707;BME280;61348;53.392;-6.248;2023-02-01T15:13:26;101612.53;;;9.69;79.87
43707;BME280;61348;53.392;-6.248;2023-02-01T15:16:21;101622.00;;;9.68;79.92
43707;BME280;61348;53.392;-6.248;2023-02-01T15:18:49;101613.19;;;9.66;80.08
43707;BME280;61348;53.392;-6.248;2023-02-01T15:21:22;101620.97;;;9.64;79.71
43707;BME280;61348;53.392;-6.248;2023-02-01T15:24:11;101620.47;;;9.62;79.64
43707;BME280;61348;53.392;-6.248;2023-02-01T15:26:37;101611.69;;;9.60;79.51
43707;BME280;61348;53.392;-6.248;2023-02-01T15:29:04;101607.00;;;9.60;79.51
43707;BME280;61348;53.392;-6.248;2023-02-01T15:31:34;101622.13;;;9.63;79.56
43707;BME280;61348;53.392;-6.248;2023-02-01T15:34:01;101611.38;;;9.61;79.31
43707;BME280;61348;53.392;-6.248;2023-02-01T15:36:28;101614.97;;;9.62;79.57
43707;BME280;61348;53.392;-6.248;2023-02-01T15:39:23;101615.59;;;9.59;79.32
43707;BME280;61348;53.392;-6.248;2023-02-01T15:41:57;101619.81;;;9.56;79.02
43707;BME280;61348;53.392;-6.248;2023-02-01T15:44:28;101625.66;;;9.55;79.08
43707;BME280;61348;53.392;-6.248;2023-02-01T15:46:57;101612.97;;;9.54;79.06
43707;BME280;61348;53.392;-6.248;2023-02-01T15:51:56;101630.50;;;9.49;79.10
43707;BME280;61348;53.392;-6.248;2023-02-01T15:54:30;101625.59;;;9.46;78.97
43707;BME280;61348;53.392;-6.248;2023-02-01T15:57:01;101628.69;;;9.45;79.08
43707;BME280;61348;53.392;-6.248;2023-02-01T15:59:42;101619.09;;;9.42;79.00